Time;durP1;ratioP1;P1;durP2;ratioP2;P2;SDS_P1;SDS_P2;PMS_P1;PMS_P2;Temp;Humidity;BMP_temperature;BMP_pressure;BME280_temperature;BME280_humidity;BME280_pressure;Samples;Min_cycle;Max_cycle;Signal;HPM_P1;HPM_P2
2021/04/19 00:01:56;;;;;;;25.55;15.38;;;3.80;99.90;;;;;;8360475;28;20029;-66
2021/04/19 00:05:57;;;;;;;27.08;15.93;;;3.50;99.90;;;;;;8361213;28;20025;-67
2021/04/19 00:09:57;;;;;;;26.50;14.90;;;3.30;99.90;;;;;;8360145;28;20083;-67
2021/04/19 00:13:58;;;;;;;25.20;14.75;;;3.30;99.90;;;;;;8358148;28;20029;-66
2021/04/19 00:17:59;;;;;;;23.65;14.45;;;3.40;99.90;;;;;;8328264;28;20033;-67
2021/04/19 00:21:59;;;;;;;24.80;14.60;;;3.40;99.90;;;;;;8343293;28;20083;-66
2021/04/19 00:26:00;;;;;;;24.83;15.10;;;3.30;99.90;;;;;;8327426;28;20034;-66
2021/04/19 00:30:02;;;;;;;22.67;14.27;;;3.40;99.90;;;;;;8327604;28;20032;-67
2021/04/19 00:34:03;;;;;;;26.38;15.30;;;3.30;99.90;;;;;;8327255;28;20029;-66
2021/04/19 00:38:04;;;;;;;25.27;15.70;;;3.30;99.90;;;;;;8342608;28;20121;-66
2021/04/19 00:42:05;;;;;;;27.67;16.30;;;3.10;99.90;;;;;;8327365;28;20029;-66
2021/04/19 00:46:06;;;;;;;30.02;16.67;;;2.90;99.90;;;;;;8346787;28;20029;-66
2021/04/19 00:50:10;;;;;;;29.98;16.92;;;2.70;99.90;;;;;;8360168;28;20044;-66
2021/04/19 00:54:12;;;;;;;32.55;17.75;;;2.50;99.90;;;;;;8359940;28;20067;-66
2021/04/19 00:58:13;;;;;;;30.33;16.45;;;2.50;99.90;;;;;;8360201;28;20079;-66
2021/04/19 01:02:14;;;;;;;31.00;17.08;;;2.30;99.90;;;;;;8358726;28;20099;-66
2021/04/19 01:06:15;;;;;;;30.02;16.90;;;2.50;99.90;;;;;;8359712;28;20061;-66
2021/04/19 01:10:15;;;;;;;31.30;16.88;;;2.40;99.90;;;;;;8359708;28;20414;-66
2021/04/19 01:14:16;;;;;;;27.00;15.93;;;2.20;99.90;;;;;;8354064;28;20105;-67
2021/04/19 01:18:16;;;;;;;27.13;16.00;;;2.10;99.90;;;;;;8341672;28;20029;-66
2021/04/19 01:22:17;;;;;;;36.35;18.10;;;2.10;99.90;;;;;;8326250;28;20096;-67
2021/04/19 01:26:18;;;;;;;34.92;18.20;;;2.00;99.90;;;;;;8326024;28;20029;-66
2021/04/19 01:30:20;;;;;;;33.35;18.58;;;2.10;99.90;;;;;;8326202;28;20143;-67
2021/04/19 01:34:21;;;;;;;35.40;18.90;;;2.10;99.90;;;;;;8325816;28;20029;-66
2021/04/19 01:38:23;;;;;;;34.42;19.42;;;2.10;99.90;;;;;;8326020;28;20029;-66
2021/04/19 01:42:24;;;;;;;34.42;18.27;;;2.30;99.90;;;;;;8325760;28;20032;-67
2021/04/19 01:46:25;;;;;;;31.40;17.50;;;2.50;99.90;;;;;;8348495;28;20373;-67
2021/04/19 01:50:28;;;;;;;31.38;17.48;;;2.60;99.90;;;;;;8315397;28;20448;-67
2021/04/19 01:54:29;;;;;;;31.85;17.10;;;2.70;99.90;;;;;;8292573;28;20499;-66
2021/04/19 01:58:29;;;;;;;24.60;14.27;;;2.60;99.90;;;;;;8293004;28;20026;-67
2021/04/19 02:02:35;;;;;;;25.52;14.95;;;2.30;99.90;;;;;;8292515;28;20033;-66
2021/04/19 02:06:39;;;;;;;27.17;15.30;;;2.10;99.90;;;;;;8291642;28;20056;-67
2021/04/19 02:11:24;;;;;;;29.20;15.10;;;2.20;99.90;;;;;;8292665;28;20573;-66
2021/04/19 02:15:52;;;;;;;27.17;14.40;;;2.00;99.90;;;;;;8305694;28;20087;-66
2021/04/19 02:20:28;;;;;;;29.73;15.70;;;2.10;99.90;;;;;;8320877;28;20059;-66
2021/04/19 02:24:30;;;;;;;29.85;16.48;;;2.20;99.90;;;;;;8316318;28;20504;-67
2021/04/19 02:28:38;;;;;;;30.95;16.88;;;2.10;99.90;;;;;;8324731;28;20033;-66
2021/04/19 02:32:45;;;;;;;26.60;14.98;;;2.00;99.90;;;;;;8324124;28;20029;-66
2021/04/19 02:36:49;;;;;;;26.42;15.15;;;2.10;99.90;;;;;;8325177;28;20028;-67
2021/04/19 02:40:51;;;;;;;26.73;15.73;;;2.40;99.90;;;;;;8325226;28;20037;-67
2021/04/19 02:44:53;;;;;;;28.90;15.05;;;2.50;99.90;;;;;;8350347;28;20028;-67
2021/04/19 02:48:54;;;;;;;31.05;16.85;;;2.50;99.90;;;;;;8357577;28;20025;-66
2021/04/19 02:52:57;;;;;;;28.38;15.73;;;2.60;99.90;;;;;;8378702;28;20017;-67
2021/04/19 02:56:59;;;;;;;29.10;16.23;;;2.60;99.90;;;;;;8363378;28;20025;-66
2021/04/19 03:01:00;;;;;;;27.27;15.30;;;2.60;99.90;;;;;;8363576;28;20061;-67
2021/04/19 03:05:02;;;;;;;26.95;15.38;;;2.60;99.90;;;;;;8321268;28;20052;-67
2021/04/19 03:09:04;;;;;;;30.13;16.65;;;2.50;99.90;;;;;;8329444;28;20032;-67
2021/04/19 03:13:07;;;;;;;31.30;16.52;;;2.30;99.90;;;;;;8329390;28;20083;-64
2021/04/19 03:17:12;;;;;;;31.63;17.35;;;2.50;99.90;;;;;;8330351;28;20061;-64
2021/04/19 03:21:24;;;;;;;31.88;17.65;;;2.60;99.90;;;;;;8345230;28;20029;-64
2021/04/19 03:25:27;;;;;;;29.73;17.08;;;2.30;99.90;;;;;;8324730;28;20135;-63
2021/04/19 03:29:30;;;;;;;29.85;17.05;;;2.50;99.90;;;;;;8314145;28;20032;-64
2021/04/19 03:33:33;;;;;;;27.25;15.80;;;2.40;99.90;;;;;;8318554;28;20082;-64
2021/04/19 03:37:36;;;;;;;31.38;17.38;;;2.30;99.90;;;;;;8330015;28;20033;-63
2021/04/19 03:41:41;;;;;;;28.02;15.60;;;2.50;99.90;;;;;;8329790;28;20029;-64
2021/04/19 03:45:44;;;;;;;29.58;16.48;;;2.20;99.90;;;;;;8329003;28;20029;-64
2021/04/19 03:49:49;;;;;;;30.05;15.88;;;2.20;99.90;;;;;;8329250;28;20044;-64
2021/04/19 03:53:53;;;;;;;27.08;16.35;;;2.30;99.90;;;;;;8329044;28;20026;-64
2021/04/19 03:57:56;;;;;;;29.38;16.63;;;2.40;99.90;;;;;;8344018;28;20041;-64
2021/04/19 04:02:01;;;;;;;33.45;17.38;;;2.30;99.90;;;;;;8327750;28;20109;-63
2021/04/19 04:06:03;;;;;;;30.45;17.20;;;2.40;99.90;;;;;;8329403;28;20132;-64
2021/04/19 04:10:04;;;;;;;31.13;15.40;;;2.30;99.90;;;;;;8327196;28;20531;-64
2021/04/19 04:14:05;;;;;;;27.98;15.60;;;2.50;99.90;;;;;;8328043;28;20075;-64
2021/04/19 04:18:05;;;;;;;30.05;16.42;;;2.40;99.90;;;;;;8298569;28;20026;-67
2021/04/19 04:22:07;;;;;;;25.52;15.48;;;2.20;99.90;;;;;;8295619;28;20022;-66
2021/04/19 04:26:08;;;;;;;28.00;15.68;;;2.00;99.90;;;;;;8305880;28;20038;-66
2021/04/19 04:30:09;;;;;;;28.33;15.90;;;2.10;99.90;;;;;;8295333;28;20021;-66
2021/04/19 04:34:13;;;;;;;29.42;16.13;;;2.40;99.90;;;;;;8295460;28;20026;-68
2021/04/19 04:38:13;;;;;;;33.22;18.80;;;2.30;99.90;;;;;;8294929;28;20033;-66
2021/04/19 04:42:17;;;;;;;34.15;17.80;;;2.10;99.90;;;;;;8293719;28;20122;-66
2021/04/19 04:46:34;;;;;;;29.35;17.88;;;2.10;99.90;;;;;;8338185;28;20028;-67
2021/04/19 04:50:34;;;;;;;34.25;18.13;;;2.20;99.90;;;;;;8360561;28;20495;-66
2021/04/19 04:54:38;;;;;;;32.63;18.05;;;2.70;99.90;;;;;;8360158;28;20025;-67
2021/04/19 04:58:41;;;;;;;30.02;17.45;;;2.60;99.90;;;;;;8360098;28;20108;-66
2021/04/19 05:02:45;;;;;;;35.08;18.33;;;2.40;99.90;;;;;;8346265;28;20029;-66
2021/04/19 05:06:46;;;;;;;31.67;17.40;;;2.70;99.90;;;;;;8326705;28;20037;-66
2021/04/19 05:10:47;;;;;;;30.30;16.52;;;3.40;99.90;;;;;;8325540;28;20523;-66
2021/04/19 05:15:01;;;;;;;26.42;15.75;;;3.70;99.90;;;;;;8317911;28;20083;-66
2021/04/19 05:19:03;;;;;;;24.75;14.82;;;3.70;99.90;;;;;;8311693;28;20110;-66
2021/04/19 05:23:04;;;;;;;26.27;15.18;;;3.60;99.90;;;;;;8317411;28;20595;-63
2021/04/19 05:27:05;;;;;;;26.65;15.05;;;4.50;99.90;;;;;;8325763;28;20036;-64
2021/04/19 05:31:07;;;;;;;24.60;15.07;;;5.00;99.90;;;;;;8317283;28;20386;-63
2021/04/19 05:35:08;;;;;;;22.88;14.60;;;5.40;99.90;;;;;;8307777;28;20021;-63
2021/04/19 05:39:10;;;;;;;36.63;21.50;;;6.00;99.90;;;;;;8311504;28;20083;-63
2021/04/19 05:43:11;;;;;;;25.95;16.27;;;6.10;99.90;;;;;;8315455;28;20022;-63
2021/04/19 05:47:12;;;;;;;28.05;15.75;;;6.20;99.90;;;;;;8336314;28;20034;-64
2021/04/19 05:51:25;;;;;;;27.13;16.48;;;6.10;99.90;;;;;;8325139;28;20034;-63
2021/04/19 05:55:29;;;;;;;28.30;16.70;;;5.70;99.90;;;;;;8311193;28;20022;-64
2021/04/19 05:59:48;;;;;;;28.05;16.20;;;5.50;99.90;;;;;;8306524;28;20032;-62
2021/04/19 06:04:12;;;;;;;28.92;17.70;;;5.40;99.90;;;;;;8323541;28;20036;-62
2021/04/19 06:08:16;;;;;;;34.45;17.88;;;5.30;99.90;;;;;;8305450;28;20034;-62
2021/04/19 06:12:21;;;;;;;30.45;18.17;;;5.30;99.90;;;;;;8312726;28;20030;-62
2021/04/19 06:16:23;;;;;;;32.38;18.60;;;5.70;99.90;;;;;;8314298;28;20048;-63
2021/04/19 06:20:25;;;;;;;30.73;17.92;;;5.70;99.90;;;;;;8303747;28;20034;-63
2021/04/19 06:24:25;;;;;;;29.73;18.60;;;6.00;99.90;;;;;;8295933;28;20405;-63
2021/04/19 06:28:26;;;;;;;27.80;17.60;;;6.00;99.90;;;;;;8322314;28;20037;-63
2021/04/19 06:32:27;;;;;;;31.40;18.80;;;6.30;99.90;;;;;;8310087;28;20049;-63
2021/04/19 06:36:36;;;;;;;32.00;19.05;;;6.40;99.90;;;;;;8313910;28;20449;-63
2021/04/19 06:40:39;;;;;;;31.30;18.15;;;6.50;99.90;;;;;;8299987;28;20034;-63
2021/04/19 06:44:39;;;;;;;34.17;19.73;;;6.50;99.90;;;;;;8315425;28;20080;-63
2021/04/19 06:48:41;;;;;;;32.05;19.00;;;6.40;99.90;;;;;;8316256;28;20033;-63
2021/04/19 06:52:48;;;;;;;29.80;19.55;;;6.70;99.90;;;;;;8314877;28;20113;-62
2021/04/19 06:56:51;;;;;;;38.60;19.52;;;6.70;99.90;;;;;;8312907;28;20452;-63
2021/04/19 07:00:54;;;;;;;32.65;19.20;;;7.00;99.90;;;;;;8312625;28;20033;-63
2021/04/19 07:04:56;;;;;;;32.10;19.00;;;6.80;99.90;;;;;;8312679;28;20106;-63
2021/04/19 07:09:20;;;;;;;33.70;20.17;;;6.70;99.90;;;;;;8315015;28;20515;-63
2021/04/19 07:13:23;;;;;;;31.88;18.25;;;7.00;99.90;;;;;;8302240;28;20034;-62
2021/04/19 07:17:25;;;;;;;32.78;19.75;;;7.10;99.90;;;;;;8313586;28;20026;-63
2021/04/19 07:21:26;;;;;;;30.45;19.48;;;7.10;99.90;;;;;;8314096;28;20021;-63
2021/04/19 07:25:28;;;;;;;29.63;18.65;;;7.30;99.90;;;;;;8311587;28;20022;-63
2021/04/19 07:29:29;;;;;;;31.30;18.63;;;7.60;99.90;;;;;;8312178;28;20017;-63
2021/04/19 07:33:34;;;;;;;33.67;21.02;;;7.90;99.90;;;;;;8311999;28;20036;-63
2021/04/19 07:37:35;;;;;;;31.67;19.33;;;8.20;99.90;;;;;;8311149;28;20033;-63
2021/04/19 07:41:45;;;;;;;33.58;20.13;;;8.40;99.90;;;;;;8309469;28;20634;-63
2021/04/19 07:46:01;;;;;;;29.73;19.80;;;8.80;99.90;;;;;;8313749;28;20048;-63
2021/04/19 07:50:05;;;;;;;35.47;19.90;;;9.30;99.90;;;;;;8313291;28;20256;-63
2021/04/19 07:54:21;;;;;;;25.55;16.33;;;9.60;99.90;;;;;;8309987;28;20045;-63
2021/04/19 07:58:24;;;;;;;29.73;17.35;;;9.70;99.90;;;;;;8307876;28;20022;-63
2021/04/19 08:02:25;;;;;;;29.25;17.13;;;9.50;99.90;;;;;;8311662;28;20037;-62
2021/04/19 08:06:25;;;;;;;27.13;16.35;;;9.40;99.90;;;;;;8310669;28;20384;-62
2021/04/19 08:10:26;;;;;;;26.08;16.23;;;9.40;99.90;;;;;;8312071;28;20151;-63
2021/04/19 08:14:33;;;;;;;25.20;13.77;;;9.50;99.90;;;;;;8314911;28;20112;-62
2021/04/19 08:18:39;;;;;;;30.42;16.50;;;9.40;99.90;;;;;;8312670;28;20038;-62
2021/04/19 08:22:43;;;;;;;23.45;15.02;;;9.50;99.90;;;;;;8308456;28;20022;-63
2021/04/19 08:26:55;;;;;;;25.70;14.77;;;10.10;99.90;;;;;;8309089;28;20072;-63
2021/04/19 08:30:58;;;;;;;25.70;15.20;;;10.20;99.90;;;;;;8303350;28;20053;-63
2021/04/19 08:35:00;;;;;;;23.23;15.48;;;10.00;99.90;;;;;;8307608;28;20052;-64
2021/04/19 08:39:01;;;;;;;23.65;15.30;;;10.10;99.90;;;;;;8314425;28;20535;-63
2021/04/19 08:43:06;;;;;;;22.10;14.23;;;10.20;99.90;;;;;;8318721;28;20060;-64
2021/04/19 08:47:07;;;;;;;19.40;13.05;;;10.50;99.90;;;;;;8310683;28;20033;-64
2021/04/19 08:51:08;;;;;;;15.05;8.35;;;10.80;99.90;;;;;;8308044;28;20623;-63
2021/04/19 08:55:10;;;;;;;24.08;13.98;;;10.80;99.90;;;;;;8310439;28;20112;-62
2021/04/19 08:59:12;;;;;;;19.08;12.43;;;10.50;99.90;;;;;;8315191;28;20059;-63
2021/04/19 09:03:16;;;;;;;18.55;12.55;;;10.70;99.90;;;;;;8316895;28;20037;-63
2021/04/19 09:07:28;;;;;;;23.65;13.32;;;10.00;99.90;;;;;;8306141;28;20123;-62
2021/04/19 09:11:29;;;;;;;20.42;11.70;;;10.10;99.90;;;;;;8309626;28;20036;-63
2021/04/19 09:15:32;;;;;;;17.38;11.02;;;10.50;99.90;;;;;;8306851;28;20022;-62
2021/04/19 09:19:37;;;;;;;22.33;14.27;;;10.90;99.90;;;;;;8306789;28;20033;-63
2021/04/19 09:23:38;;;;;;;20.27;12.23;;;10.90;99.90;;;;;;8298818;28;20030;-63
2021/04/19 09:28:05;;;;;;;17.92;12.43;;;11.20;99.90;;;;;;8302395;28;20036;-63
2021/04/19 09:32:08;;;;;;;17.92;11.65;;;11.50;99.90;;;;;;8310928;28;20040;-62
2021/04/19 09:36:08;;;;;;;19.70;12.88;;;11.30;99.90;;;;;;8310068;28;20550;-61
2021/04/19 09:40:21;;;;;;;19.30;12.48;;;11.30;99.90;;;;;;8306636;28;20025;-61
2021/04/19 09:44:28;;;;;;;15.60;10.75;;;11.40;99.90;;;;;;8333650;28;20021;-61
2021/04/19 09:48:28;;;;;;;15.90;11.00;;;11.70;99.90;;;;;;8323756;28;20072;-61
2021/04/19 09:52:29;;;;;;;15.30;11.13;;;12.50;99.90;;;;;;8325576;28;20029;-61
2021/04/19 09:56:34;;;;;;;16.88;10.88;;;12.90;99.90;;;;;;8320040;28;20021;-61
2021/04/19 10:00:35;;;;;;;20.00;12.20;;;12.60;99.90;;;;;;8326235;28;20041;-61
2021/04/19 10:04:41;;;;;;;19.05;12.30;;;12.20;99.90;;;;;;8332132;28;20399;-61
2021/04/19 10:08:43;;;;;;;15.50;10.27;;;12.90;99.90;;;;;;8329552;28;20029;-61
2021/04/19 10:12:48;;;;;;;15.52;10.98;;;13.60;99.90;;;;;;8329388;28;20094;-61
2021/04/19 10:16:50;;;;;;;14.60;10.77;;;14.00;99.90;;;;;;8331734;28;20490;-61
2021/04/19 10:20:50;;;;;;;12.85;9.32;;;14.60;98.00;;;;;;8323628;28;20447;-62
2021/04/19 10:24:59;;;;;;;11.23;8.15;;;14.70;97.60;;;;;;8326260;28;20022;-61
2021/04/19 10:29:09;;;;;;;13.15;8.90;;;14.80;93.20;;;;;;8329807;28;20028;-61
2021/04/19 10:33:10;;;;;;;12.45;9.27;;;13.80;93.60;;;;;;8323730;28;20104;-61
2021/04/19 10:37:11;;;;;;;13.23;9.05;;;14.50;94.50;;;;;;8330489;28;20029;-61
2021/04/19 10:41:13;;;;;;;12.35;9.10;;;15.00;93.10;;;;;;8328876;28;20026;-61
2021/04/19 10:45:14;;;;;;;12.55;8.57;;;15.00;92.80;;;;;;8331642;28;20331;-61
2021/04/19 10:49:23;;;;;;;11.43;8.63;;;14.90;89.30;;;;;;8330022;28;20029;-61
2021/04/19 10:53:32;;;;;;;10.60;7.88;;;15.40;87.40;;;;;;8329121;28;20065;-62
2021/04/19 10:57:32;;;;;;;9.52;6.90;;;15.50;83.10;;;;;;8326977;28;20037;-62
2021/04/19 11:01:38;;;;;;;9.90;7.15;;;14.80;82.90;;;;;;8327772;28;20638;-61
2021/04/19 11:05:39;;;;;;;12.60;7.40;;;13.80;88.40;;;;;;8317766;28;20057;-61
2021/04/19 11:09:40;;;;;;;10.48;7.78;;;13.40;90.00;;;;;;8309297;28;20030;-61
2021/04/19 11:13:40;;;;;;;10.77;7.88;;;13.40;88.20;;;;;;8313181;28;20030;-62
2021/04/19 11:17:41;;;;;;;11.00;7.63;;;13.70;89.50;;;;;;8328696;28;20075;-62
2021/04/19 11:21:42;;;;;;;11.38;7.95;;;14.30;84.20;;;;;;8327912;28;20026;-62
2021/04/19 11:25:47;;;;;;;12.27;8.25;;;13.90;89.60;;;;;;8329527;28;20079;-62
2021/04/19 11:29:49;;;;;;;10.82;7.57;;;14.50;86.80;;;;;;8329871;28;20022;-62
2021/04/19 11:34:09;;;;;;;11.95;8.30;;;15.20;90.10;;;;;;8329311;28;20033;-62
2021/04/19 11:38:25;;;;;;;11.00;8.27;;;15.90;88.80;;;;;;8322161;28;20496;-62
2021/04/19 11:42:31;;;;;;;11.02;7.82;;;16.20;85.20;;;;;;8317230;28;20040;-62
2021/04/19 11:46:32;;;;;;;11.27;8.10;;;16.10;84.70;;;;;;8316175;28;20032;-62
2021/04/19 11:50:32;;;;;;;10.55;7.28;;;15.80;87.80;;;;;;8310768;28;20079;-62
2021/04/19 11:54:33;;;;;;;9.98;7.43;;;15.60;87.70;;;;;;8322968;28;20037;-62
2021/04/19 11:58:36;;;;;;;11.40;7.90;;;15.40;85.20;;;;;;8323831;28;20136;-63
2021/04/19 12:02:36;;;;;;;10.32;7.10;;;15.20;84.60;;;;;;8325793;28;20124;-63
2021/04/19 12:06:37;;;;;;;9.35;6.75;;;15.10;84.80;;;;;;8320105;28;20491;-63
2021/04/19 12:10:39;;;;;;;8.95;7.00;;;15.00;85.20;;;;;;8303582;28;20570;-62
2021/04/19 12:14:39;;;;;;;11.68;8.10;;;15.10;83.90;;;;;;8312144;28;20105;-62
2021/04/19 12:18:40;;;;;;;9.88;6.78;;;15.20;84.00;;;;;;8319060;28;20034;-63
2021/04/19 12:22:41;;;;;;;7.90;6.50;;;15.20;84.00;;;;;;8318285;28;20076;-63
2021/04/19 12:26:41;;;;;;;7.68;6.35;;;15.40;82.40;;;;;;8325689;28;20034;-63
2021/04/19 12:30:42;;;;;;;8.63;6.22;;;15.60;80.00;;;;;;8316778;28;20366;-63
2021/04/19 12:34:42;;;;;;;36.22;17.75;;;16.00;79.40;;;;;;8310044;28;20480;-62
2021/04/19 12:38:44;;;;;;;48.38;20.10;;;19.80;70.70;;;;;;8305889;28;20152;-63
2021/04/19 12:42:45;;;;;;;56.45;21.30;;;24.60;55.20;;;;;;8310842;28;20037;-63
2021/04/19 12:46:46;;;;;;;53.85;20.70;;;;;;;;;;8311480;28;20120;-63
2021/04/19 12:50:46;;;;;;;8.68;7.05;;;27.80;75.00;;;;;;8309861;28;20506;-64
2021/04/19 12:54:47;;;;;;;10.40;7.50;;;;;;;;;;8306998;28;20025;-62
2021/04/19 12:58:48;;;;;;;9.10;7.43;;;23.00;43.10;;;;;;8306608;28;20057;-63
2021/04/19 13:02:49;;;;;;;8.73;6.45;;;23.10;43.90;;;;;;8318350;28;20036;-63
2021/04/19 13:06:49;;;;;;;9.15;6.20;;;22.70;44.90;;;;;;8303435;28;20025;-62
2021/04/19 13:10:50;;;;;;;9.48;6.82;;;22.50;45.50;;;;;;8314682;28;20057;-63
2021/04/19 13:14:51;;;;;;;8.55;6.03;;;20.80;45.80;;;;;;8321869;28;20044;-63
2021/04/19 13:18:51;;;;;;;10.02;7.70;;;21.20;50.40;;;;;;8322090;28;20546;-63
2021/04/19 13:22:52;;;;;;;7.85;6.50;;;20.70;46.40;;;;;;8318591;28;20472;-63
2021/04/19 13:26:53;;;;;;;7.97;6.47;;;20.40;47.00;;;;;;8309637;28;20026;-63
2021/04/19 13:30:54;;;;;;;11.00;7.40;;;18.90;51.10;;;;;;8305733;28;20037;-63
2021/04/19 13:34:54;;;;;;;10.02;7.55;;;17.80;52.20;;;;;;8303768;28;20026;-63
2021/04/19 13:38:55;;;;;;;8.35;6.45;;;18.30;53.50;;;;;;8311929;28;20030;-63
2021/04/19 13:42:55;;;;;;;9.85;6.65;;;18.30;57.50;;;;;;8300374;28;20045;-63
2021/04/19 13:46:56;;;;;;;10.75;6.97;;;18.70;54.10;;;;;;8320645;28;20025;-63
2021/04/19 13:50:56;;;;;;;8.25;6.50;;;18.60;52.30;;;;;;8306844;28;20032;-63
2021/04/19 13:54:57;;;;;;;8.27;6.10;;;18.30;55.90;;;;;;8308405;28;20021;-63
2021/04/19 13:58:58;;;;;;;9.05;6.72;;;18.90;57.10;;;;;;8303057;28;20018;-62
2021/04/19 14:02:59;;;;;;;8.85;6.70;;;19.50;50.70;;;;;;8302952;28;20507;-63
2021/04/19 14:06:59;;;;;;;9.82;7.05;;;20.20;48.30;;;;;;8301739;28;20030;-62
2021/04/19 14:11:00;;;;;;;9.80;7.00;;;19.40;50.20;;;;;;8314090;28;20030;-62
2021/04/19 14:15:01;;;;;;;9.77;7.30;;;18.30;52.20;;;;;;8310138;28;20021;-62
2021/04/19 14:19:02;;;;;;;9.60;6.93;;;16.80;56.40;;;;;;8323088;28;20695;-62
2021/04/19 14:23:03;;;;;;;8.82;6.30;;;16.60;59.00;;;;;;8320303;28;20066;-62
2021/04/19 14:27:06;;;;;;;14.65;11.02;;;16.40;59.30;;;;;;8311232;28;20199;-62
2021/04/19 14:31:08;;;;;;;18.45;12.25;;;15.20;70.90;;;;;;8304529;28;20022;-62
2021/04/19 14:35:09;;;;;;;18.52;12.75;;;14.30;89.00;;;;;;8308146;28;20507;-61
2021/04/19 14:39:10;;;;;;;20.42;13.40;;;11.80;93.50;;;;;;8318850;28;20485;-62
2021/04/19 14:43:11;;;;;;;19.13;11.63;;;11.10;99.90;;;;;;8322005;28;20087;-61
2021/04/19 14:47:11;;;;;;;17.13;12.18;;;11.00;99.90;;;;;;8337795;28;20061;-63
2021/04/19 14:51:12;;;;;;;19.17;12.50;;;11.20;99.90;;;;;;8318884;28;20045;-62
2021/04/19 14:55:14;;;;;;;17.95;12.63;;;11.50;99.90;;;;;;8319906;28;20096;-63
2021/04/19 14:59:15;;;;;;;17.50;11.52;;;11.70;99.90;;;;;;8315541;28;20033;-63
2021/04/19 15:03:19;;;;;;;18.63;11.40;;;11.70;99.90;;;;;;8325189;28;20029;-62
2021/04/19 15:07:20;;;;;;;15.82;10.93;;;11.80;99.90;;;;;;8323368;28;20492;-63
2021/04/19 15:11:20;;;;;;;15.13;10.38;;;11.80;99.90;;;;;;8306216;28;20064;-62
2021/04/19 15:15:21;;;;;;;15.02;10.45;;;11.20;99.90;;;;;;8320926;28;20026;-62
2021/04/19 15:19:22;;;;;;;14.38;9.45;;;11.10;99.90;;;;;;8327201;28;20029;-62
2021/04/19 15:23:22;;;;;;;14.20;9.50;;;11.00;99.90;;;;;;8319284;28;20032;-62
2021/04/19 15:27:23;;;;;;;15.32;8.65;;;10.90;99.90;;;;;;8340806;28;20030;-62
2021/04/19 15:31:24;;;;;;;12.48;8.85;;;10.90;99.90;;;;;;8328765;28;20018;-62
2021/04/19 15:35:24;;;;;;;13.63;8.55;;;10.90;99.90;;;;;;8326825;28;20021;-62
2021/04/19 15:39:25;;;;;;;12.55;7.88;;;11.00;99.90;;;;;;8329685;28;20035;-62
2021/04/19 15:43:26;;;;;;;11.93;8.38;;;11.10;99.90;;;;;;8329096;28;20427;-62
2021/04/19 15:47:28;;;;;;;11.55;7.60;;;11.20;99.90;;;;;;8329112;28;20191;-62
2021/04/19 15:51:30;;;;;;;11.77;7.90;;;11.40;99.90;;;;;;8316247;28;20029;-62
2021/04/19 15:55:30;;;;;;;10.00;6.63;;;11.10;99.90;;;;;;8309435;28;20049;-62
2021/04/19 15:59:31;;;;;;;13.02;8.18;;;10.90;99.90;;;;;;8325936;28;20424;-62
2021/04/19 16:03:31;;;;;;;11.27;8.18;;;10.80;99.90;;;;;;8325403;28;20091;-62
2021/04/19 16:07:32;;;;;;;12.63;9.00;;;10.80;99.90;;;;;;8320196;28;20136;-62
2021/04/19 16:11:34;;;;;;;12.63;8.88;;;10.50;99.90;;;;;;8317802;28;20476;-62
2021/04/19 16:15:35;;;;;;;14.60;10.57;;;10.50;99.90;;;;;;8304587;28;20022;-60
2021/04/19 16:19:35;;;;;;;14.07;9.57;;;10.50;99.90;;;;;;8312394;28;20055;-61
2021/04/19 16:23:36;;;;;;;17.08;10.23;;;10.30;99.90;;;;;;8310985;28;20048;-61
2021/04/19 16:27:38;;;;;;;15.57;10.20;;;10.40;99.90;;;;;;8283896;28;20065;-62
2021/04/19 16:31:38;;;;;;;13.73;9.65;;;10.40;99.90;;;;;;8286673;28;20520;-61
2021/04/19 16:35:39;;;;;;;15.25;9.75;;;10.20;99.90;;;;;;8286298;28;20091;-62
2021/04/19 16:39:40;;;;;;;14.80;9.10;;;9.70;99.90;;;;;;8288277;28;20029;-62
2021/04/19 16:43:40;;;;;;;16.73;10.35;;;9.70;99.90;;;;;;8288738;28;20569;-62
2021/04/19 16:47:45;;;;;;;16.15;10.20;;;9.80;99.90;;;;;;8291166;28;20049;-61
2021/04/19 16:51:46;;;;;;;13.90;10.07;;;10.10;99.90;;;;;;8292139;28;20037;-61
2021/04/19 16:55:46;;;;;;;15.77;10.65;;;10.60;99.90;;;;;;8295309;28;20549;-61
2021/04/19 16:59:47;;;;;;;14.30;9.23;;;10.60;99.90;;;;;;8297203;28;20022;-61
2021/04/19 17:03:48;;;;;;;15.73;10.30;;;10.90;99.90;;;;;;8297827;28;20052;-61
2021/04/19 17:07:49;;;;;;;14.32;9.77;;;11.00;99.90;;;;;;8311400;28;20036;-61
2021/04/19 17:11:50;;;;;;;14.35;9.63;;;10.80;99.90;;;;;;8308990;28;20056;-62
2021/04/19 17:15:51;;;;;;;12.38;9.27;;;10.70;99.90;;;;;;8290616;28;20545;-62
2021/04/19 17:19:52;;;;;;;15.30;9.48;;;10.80;99.90;;;;;;8303874;28;20049;-62
2021/04/19 17:23:53;;;;;;;12.38;9.27;;;10.90;99.90;;;;;;8312110;28;20029;-62
2021/04/19 17:27:54;;;;;;;12.77;8.98;;;10.60;99.90;;;;;;8313890;28;20037;-62
2021/04/19 17:31:55;;;;;;;14.05;9.23;;;10.20;99.90;;;;;;8313923;28;20025;-62
2021/04/19 17:35:56;;;;;;;13.10;9.25;;;9.90;99.90;;;;;;8333514;22;20064;-64
2021/04/19 17:39:56;;;;;;;14.30;8.73;;;9.50;99.90;;;;;;8314338;28;20097;-64
2021/04/19 17:43:57;;;;;;;13.73;9.15;;;9.20;99.90;;;;;;8323876;28;20431;-63
2021/04/19 17:47:57;;;;;;;13.55;9.07;;;9.30;99.90;;;;;;8324599;28;20101;-65
2021/04/19 17:51:59;;;;;;;15.02;9.68;;;9.10;99.90;;;;;;8314832;28;20029;-66
2021/04/19 17:56:00;;;;;;;14.75;9.95;;;;;;;;;;8315134;28;20037;-67
2021/04/19 18:00:01;;;;;;;15.52;10.57;;;8.40;99.90;;;;;;8322633;28;20557;-66
2021/04/19 18:04:02;;;;;;;19.02;12.23;;;8.20;99.90;;;;;;8318953;28;20045;-66
2021/04/19 18:08:03;;;;;;;15.88;11.55;;;8.20;99.90;;;;;;8314932;28;20111;-66
2021/04/19 18:12:04;;;;;;;17.17;10.50;;;8.50;99.90;;;;;;8321242;28;20026;-67
2021/04/19 18:16:04;;;;;;;16.50;10.68;;;8.50;99.90;;;;;;8325564;28;20034;-69
2021/04/19 18:20:08;;;;;;;17.33;11.23;;;8.20;99.90;;;;;;8319299;28;20030;-68
2021/04/19 18:24:09;;;;;;;19.83;12.40;;;7.90;99.90;;;;;;8326012;28;20033;-68
2021/04/19 18:28:13;;;;;;;17.08;11.55;;;7.70;99.90;;;;;;8322194;28;20569;-68
2021/04/19 18:32:14;;;;;;;18.92;12.63;;;7.70;99.90;;;;;;8323401;28;20028;-68
2021/04/19 18:36:16;;;;;;;17.85;12.15;;;7.80;99.90;;;;;;8325230;28;20033;-69
2021/04/19 18:40:17;;;;;;;16.65;11.57;;;7.90;99.90;;;;;;8326073;28;20056;-68
2021/04/19 18:44:17;;;;;;;19.98;12.25;;;7.60;99.90;;;;;;8309671;28;20395;-67
2021/04/19 18:48:18;;;;;;;17.42;11.68;;;7.50;99.90;;;;;;8322033;28;20030;-68
2021/04/19 18:52:20;;;;;;;21.08;14.18;;;7.30;99.90;;;;;;8316209;28;20033;-67
2021/04/19 18:56:22;;;;;;;19.08;13.15;;;7.40;99.90;;;;;;8322364;28;20100;-67
2021/04/19 19:00:23;;;;;;;18.88;12.55;;;7.50;99.90;;;;;;8307602;28;20105;-68
2021/04/19 19:04:24;;;;;;;16.90;13.27;;;7.50;99.90;;;;;;8310887;28;20111;-68
2021/04/19 19:08:25;;;;;;;13.57;9.25;;;7.30;99.90;;;;;;8307964;28;20037;-67
2021/04/19 19:12:25;;;;;;;15.80;10.43;;;7.40;99.90;;;;;;8298121;28;20129;-68
2021/04/19 19:16:27;;;;;;;14.60;10.77;;;7.50;99.90;;;;;;8292045;28;20021;-67
2021/04/19 19:20:27;;;;;;;15.57;10.65;;;7.30;99.90;;;;;;8273205;28;20048;-67
2021/04/19 19:24:28;;;;;;;17.42;10.38;;;7.10;99.90;;;;;;8273721;28;20030;-67
2021/04/19 19:28:29;;;;;;;15.88;11.10;;;7.10;99.90;;;;;;8291216;28;20121;-67
2021/04/19 19:32:29;;;;;;;17.40;11.85;;;7.10;99.90;;;;;;8293019;28;20114;-68
2021/04/19 19:36:30;;;;;;;14.88;10.10;;;7.20;99.90;;;;;;8294371;28;20038;-68
2021/04/19 19:40:31;;;;;;;15.38;9.63;;;7.00;99.90;;;;;;8312286;28;20034;-68
2021/04/19 19:44:31;;;;;;;17.05;10.35;;;6.90;99.90;;;;;;8295888;28;20037;-68
2021/04/19 19:48:33;;;;;;;17.88;11.30;;;7.10;99.90;;;;;;8316852;28;20060;-67
2021/04/19 19:52:34;;;;;;;19.77;13.30;;;7.20;99.90;;;;;;8303283;28;20036;-67
2021/04/19 19:56:35;;;;;;;21.92;13.50;;;7.10;99.90;;;;;;8320326;28;20077;-68
2021/04/19 20:00:36;;;;;;;18.05;11.82;;;6.90;99.90;;;;;;8308499;28;20124;-67
2021/04/19 20:04:37;;;;;;;18.83;13.18;;;6.80;99.90;;;;;;8321196;28;20523;-68
2021/04/19 20:08:38;;;;;;;22.00;12.43;;;6.80;99.90;;;;;;8322014;28;20044;-67
2021/04/19 20:12:39;;;;;;;18.70;12.30;;;6.60;99.90;;;;;;8322030;28;20515;-67
2021/04/19 20:16:41;;;;;;;19.00;13.10;;;6.50;99.90;;;;;;8321814;28;20026;-67
2021/04/19 20:20:41;;;;;;;20.85;13.00;;;6.70;99.90;;;;;;8321999;28;20424;-68
2021/04/19 20:24:42;;;;;;;19.45;12.73;;;6.50;99.90;;;;;;8316420;28;20030;-67
2021/04/19 20:28:46;;;;;;;18.25;11.98;;;6.50;99.90;;;;;;8304742;28;20030;-67
2021/04/19 20:32:47;;;;;;;19.70;12.38;;;6.20;99.90;;;;;;8289526;28;20029;-67
2021/04/19 20:36:47;;;;;;;18.35;12.45;;;6.20;99.90;;;;;;8291149;28;20405;-67
2021/04/19 20:40:48;;;;;;;24.33;14.93;;;5.90;99.90;;;;;;8298428;28;20087;-68
2021/04/19 20:44:49;;;;;;;25.40;15.55;;;;;;;;;;8337433;28;20029;-67
2021/04/19 20:48:51;;;;;;;23.13;14.75;;;5.80;99.90;;;;;;8330284;28;20029;-67